sensor_id;sensor_type;location;lat;lon;timestamp;P1;durP1;ratioP1;P2;durP2;ratioP2
33840;SDS011;20142;28.494;-16.312;2022-10-31T00:00:57;10.65;;;1.95;;
33840;SDS011;20142;28.494;-16.312;2022-10-31T00:06:00;8.73;;;1.73;;
33840;SDS011;20142;28.494;-16.312;2022-10-31T00:11:02;6.95;;;1.63;;
33840;SDS011;20142;28.494;-16.312;2022-10-31T00:16:04;6.13;;;1.63;;
33840;SDS011;20142;28.494;-16.312;2022-10-31T00:21:14;6.97;;;1.50;;
33840;SDS011;20142;28.494;-16.312;2022-10-31T00:26:16;10.48;;;2.05;;
33840;SDS011;20142;28.494;-16.312;2022-10-31T00:31:18;7.22;;;1.77;;
33840;SDS011;20142;28.494;-16.312;2022-10-31T00:36:20;6.03;;;1.40;;
33840;SDS011;20142;28.494;-16.312;2022-10-31T00:41:22;7.50;;;1.95;;
33840;SDS011;20142;28.494;-16.312;2022-10-31T00:46:24;8.13;;;1.70;;
33840;SDS011;20142;28.494;-16.312;2022-10-31T00:51:25;10.70;;;1.95;;
33840;SDS011;20142;28.494;-16.312;2022-10-31T00:56:27;8.68;;;1.83;;
33840;SDS011;20142;28.494;-16.312;2022-10-31T01:01:28;9.02;;;2.25;;
33840;SDS011;20142;28.494;-16.312;2022-10-31T01:06:30;9.45;;;1.90;;
33840;SDS011;20142;28.494;-16.312;2022-10-31T01:11:31;12.23;;;1.92;;
33840;SDS011;20142;28.494;-16.312;2022-10-31T01:16:33;7.57;;;2.00;;
33840;SDS011;20142;28.494;-16.312;2022-10-31T01:21:35;10.38;;;1.85;;
33840;SDS011;20142;28.494;-16.312;2022-10-31T01:26:36;6.40;;;1.67;;
33840;SDS011;20142;28.494;-16.312;2022-10-31T01:31:39;8.50;;;1.75;;
33840;SDS011;20142;28.494;-16.312;2022-10-31T01:36:40;9.00;;;2.13;;
33840;SDS011;20142;28.494;-16.312;2022-10-31T01:41:46;9.82;;;2.13;;
33840;SDS011;20142;28.494;-16.312;2022-10-31T01:46:55;8.40;;;1.92;;
33840;SDS011;20142;28.494;-16.312;2022-10-31T01:52:08;7.45;;;2.25;;
33840;SDS011;20142;28.494;-16.312;2022-10-31T01:57:15;8.68;;;2.13;;
33840;SDS011;20142;28.494;-16.312;2022-10-31T02:02:18;8.70;;;1.80;;
33840;SDS011;20142;28.494;-16.312;2022-10-31T02:07:23;9.13;;;1.77;;
33840;SDS011;20142;28.494;-16.312;2022-10-31T02:17:47;8.88;;;1.90;;
33840;SDS011;20142;28.494;-16.312;2022-10-31T02:39:09;8.88;;;2.15;;
33840;SDS011;20142;28.494;-16.312;2022-10-31T02:49:27;12.45;;;2.05;;
33840;SDS011;20142;28.494;-16.312;2022-10-31T02:54:47;9.10;;;1.60;;
33840;SDS011;20142;28.494;-16.312;2022-10-31T02:59:50;8.93;;;1.55;;
33840;SDS011;20142;28.494;-16.312;2022-10-31T03:10:30;10.05;;;1.90;;
33840;SDS011;20142;28.494;-16.312;2022-10-31T03:15:49;8.23;;;1.50;;
33840;SDS011;20142;28.494;-16.312;2022-10-31T03:21:26;5.90;;;1.63;;
33840;SDS011;20142;28.494;-16.312;2022-10-31T03:26:37;7.60;;;1.60;;
33840;SDS011;20142;28.494;-16.312;2022-10-31T03:31:48;13.20;;;1.60;;
33840;SDS011;20142;28.494;-16.312;2022-10-31T03:37:00;10.68;;;1.92;;
33840;SDS011;20142;28.494;-16.312;2022-10-31T03:42:07;9.57;;;1.42;;
33840;SDS011;20142;28.494;-16.312;2022-10-31T03:47:17;8.93;;;2.17;;
33840;SDS011;20142;28.494;-16.312;2022-10-31T03:52:28;7.53;;;1.60;;
33840;SDS011;20142;28.494;-16.312;2022-10-31T03:57:49;7.00;;;1.55;;
33840;SDS011;20142;28.494;-16.312;2022-10-31T04:03:03;6.00;;;1.38;;
33840;SDS011;20142;28.494;-16.312;2022-10-31T04:08:17;6.65;;;1.30;;
33840;SDS011;20142;28.494;-16.312;2022-10-31T04:13:25;9.95;;;1.83;;
33840;SDS011;20142;28.494;-16.312;2022-10-31T04:18:30;10.88;;;1.60;;
33840;SDS011;20142;28.494;-16.312;2022-10-31T04:23:32;8.57;;;1.77;;
33840;SDS011;20142;28.494;-16.312;2022-10-31T04:28:36;9.80;;;2.15;;
33840;SDS011;20142;28.494;-16.312;2022-10-31T04:33:37;7.35;;;1.63;;
33840;SDS011;20142;28.494;-16.312;2022-10-31T04:38:39;11.20;;;1.90;;
33840;SDS011;20142;28.494;-16.312;2022-10-31T04:43:41;7.47;;;1.73;;
33840;SDS011;20142;28.494;-16.312;2022-10-31T04:48:42;3.45;;;1.40;;
33840;SDS011;20142;28.494;-16.312;2022-10-31T04:53:44;9.32;;;1.77;;
33840;SDS011;20142;28.494;-16.312;2022-10-31T04:58:45;9.77;;;1.75;;
33840;SDS011;20142;28.494;-16.312;2022-10-31T05:03:47;6.93;;;1.67;;
33840;SDS011;20142;28.494;-16.312;2022-10-31T05:08:49;9.25;;;2.22;;
33840;SDS011;20142;28.494;-16.312;2022-10-31T05:13:51;8.88;;;1.90;;
33840;SDS011;20142;28.494;-16.312;2022-10-31T05:18:53;11.55;;;2.22;;
33840;SDS011;20142;28.494;-16.312;2022-10-31T05:23:55;8.38;;;1.80;;
33840;SDS011;20142;28.494;-16.312;2022-10-31T05:28:56;9.23;;;1.80;;
33840;SDS011;20142;28.494;-16.312;2022-10-31T05:33:58;11.82;;;2.33;;
33840;SDS011;20142;28.494;-16.312;2022-10-31T05:39:00;6.60;;;1.70;;
33840;SDS011;20142;28.494;-16.312;2022-10-31T05:44:01;13.93;;;2.45;;
33840;SDS011;20142;28.494;-16.312;2022-10-31T05:49:03;7.53;;;1.88;;
33840;SDS011;20142;28.494;-16.312;2022-10-31T05:54:05;11.57;;;2.40;;
33840;SDS011;20142;28.494;-16.312;2022-10-31T05:59:06;9.50;;;2.90;;
33840;SDS011;20142;28.494;-16.312;2022-10-31T06:04:08;11.07;;;2.00;;
33840;SDS011;20142;28.494;-16.312;2022-10-31T06:09:09;12.05;;;1.95;;
33840;SDS011;20142;28.494;-16.312;2022-10-31T06:14:11;8.75;;;2.15;;
33840;SDS011;20142;28.494;-16.312;2022-10-31T06:19:13;11.13;;;2.33;;
33840;SDS011;20142;28.494;-16.312;2022-10-31T06:24:15;7.25;;;1.85;;
33840;SDS011;20142;28.494;-16.312;2022-10-31T06:29:16;9.35;;;1.73;;
33840;SDS011;20142;28.494;-16.312;2022-10-31T06:34:18;12.32;;;2.40;;
33840;SDS011;20142;28.494;-16.312;2022-10-31T06:39:19;9.48;;;1.98;;
33840;SDS011;20142;28.494;-16.312;2022-10-31T06:44:21;12.52;;;1.88;;
33840;SDS011;20142;28.494;-16.312;2022-10-31T06:49:23;6.90;;;1.95;;
33840;SDS011;20142;28.494;-16.312;2022-10-31T06:54:24;9.98;;;2.15;;
33840;SDS011;20142;28.494;-16.312;2022-10-31T06:59:26;8.35;;;2.00;;
33840;SDS011;20142;28.494;-16.312;2022-10-31T07:04:27;9.40;;;2.00;;
33840;SDS011;20142;28.494;-16.312;2022-10-31T07:09:29;15.88;;;2.40;;
33840;SDS011;20142;28.494;-16.312;2022-10-31T07:14:31;8.52;;;2.53;;
33840;SDS011;20142;28.494;-16.312;2022-10-31T07:19:32;10.63;;;2.35;;
33840;SDS011;20142;28.494;-16.312;2022-10-31T07:24:34;11.02;;;2.05;;
33840;SDS011;20142;28.494;-16.312;2022-10-31T07:29:35;8.65;;;2.50;;
33840;SDS011;20142;28.494;-16.312;2022-10-31T07:34:37;10.75;;;2.17;;
33840;SDS011;20142;28.494;-16.312;2022-10-31T07:39:39;10.65;;;2.28;;
33840;SDS011;20142;28.494;-16.312;2022-10-31T07:44:40;10.05;;;2.67;;
33840;SDS011;20142;28.494;-16.312;2022-10-31T07:49:42;9.25;;;2.20;;
33840;SDS011;20142;28.494;-16.312;2022-10-31T07:54:44;10.80;;;3.28;;
33840;SDS011;20142;28.494;-16.312;2022-10-31T07:59:45;18.45;;;2.63;;
33840;SDS011;20142;28.494;-16.312;2022-10-31T08:04:47;13.98;;;3.22;;
33840;SDS011;20142;28.494;-16.312;2022-10-31T08:09:49;11.52;;;3.03;;
33840;SDS011;20142;28.494;-16.312;2022-10-31T08:14:50;14.65;;;2.70;;
33840;SDS011;20142;28.494;-16.312;2022-10-31T08:19:52;13.63;;;3.15;;
33840;SDS011;20142;28.494;-16.312;2022-10-31T08:24:54;10.63;;;2.92;;
33840;SDS011;20142;28.494;-16.312;2022-10-31T08:29:55;7.32;;;2.00;;
33840;SDS011;20142;28.494;-16.312;2022-10-31T08:34:57;8.65;;;2.20;;
33840;SDS011;20142;28.494;-16.312;2022-10-31T08:39:59;7.00;;;2.10;;
33840;SDS011;20142;28.494;-16.312;2022-10-31T08:45:01;10.88;;;2.40;;
33840;SDS011;20142;28.494;-16.312;2022-10-31T08:50:03;11.80;;;3.15;;
33840;SDS011;20142;28.494;-16.312;2022-10-31T08:55:05;6.95;;;2.25;;
33840;SDS011;20142;28.494;-16.312;2022-10-31T09:00:07;8.82;;;2.30;;
33840;SDS011;20142;28.494;-16.312;2022-10-31T09:05:09;8.50;;;1.88;;
33840;SDS011;20142;28.494;-16.312;2022-10-31T09:10:11;8.65;;;2.00;;
33840;SDS011;20142;28.494;-16.312;2022-10-31T09:15:13;8.00;;;1.70;;
33840;SDS011;20142;28.494;-16.312;2022-10-31T09:20:14;13.88;;;2.15;;
33840;SDS011;20142;28.494;-16.312;2022-10-31T09:25:16;5.05;;;1.58;;
33840;SDS011;20142;28.494;-16.312;2022-10-31T09:30:18;13.45;;;2.10;;
33840;SDS011;20142;28.494;-16.312;2022-10-31T09:35:19;4.65;;;1.25;;
33840;SDS011;20142;28.494;-16.312;2022-10-31T09:40:21;9.82;;;1.60;;
33840;SDS011;20142;28.494;-16.312;2022-10-31T09:45:47;12.25;;;2.25;;
33840;SDS011;20142;28.494;-16.312;2022-10-31T09:56:11;9.63;;;1.80;;
33840;SDS011;20142;28.494;-16.312;2022-10-31T10:06:46;12.85;;;2.90;;
33840;SDS011;20142;28.494;-16.312;2022-10-31T10:17:21;8.35;;;1.45;;
33840;SDS011;20142;28.494;-16.312;2022-10-31T10:23:19;10.02;;;1.77;;
33840;SDS011;20142;28.494;-16.312;2022-10-31T10:28:35;9.68;;;1.90;;
33840;SDS011;20142;28.494;-16.312;2022-10-31T10:33:54;7.82;;;1.38;;
33840;SDS011;20142;28.494;-16.312;2022-10-31T10:39:25;14.05;;;1.63;;
33840;SDS011;20142;28.494;-16.312;2022-10-31T10:44:39;11.95;;;1.90;;
33840;SDS011;20142;28.494;-16.312;2022-10-31T10:50:27;9.43;;;1.40;;
33840;SDS011;20142;28.494;-16.312;2022-10-31T11:01:01;7.00;;;1.67;;
33840;SDS011;20142;28.494;-16.312;2022-10-31T11:06:18;5.75;;;1.48;;
33840;SDS011;20142;28.494;-16.312;2022-10-31T11:11:26;14.02;;;2.25;;
33840;SDS011;20142;28.494;-16.312;2022-10-31T11:16:38;8.68;;;1.42;;
33840;SDS011;20142;28.494;-16.312;2022-10-31T11:21:44;13.10;;;2.67;;
33840;SDS011;20142;28.494;-16.312;2022-10-31T11:26:47;11.50;;;1.92;;
33840;SDS011;20142;28.494;-16.312;2022-10-31T11:31:55;9.50;;;2.50;;
33840;SDS011;20142;28.494;-16.312;2022-10-31T11:37:02;12.85;;;2.33;;
33840;SDS011;20142;28.494;-16.312;2022-10-31T11:42:17;9.35;;;2.45;;
33840;SDS011;20142;28.494;-16.312;2022-10-31T11:47:27;13.03;;;2.33;;
33840;SDS011;20142;28.494;-16.312;2022-10-31T11:52:32;13.50;;;2.75;;
33840;SDS011;20142;28.494;-16.312;2022-10-31T11:57:43;15.63;;;2.78;;
33840;SDS011;20142;28.494;-16.312;2022-10-31T12:02:48;16.77;;;2.45;;
33840;SDS011;20142;28.494;-16.312;2022-10-31T12:07:51;13.65;;;2.45;;
33840;SDS011;20142;28.494;-16.312;2022-10-31T12:35:51;17.83;;;2.90;;
33840;SDS011;20142;28.494;-16.312;2022-10-31T12:57:36;7.88;;;1.40;;
33840;SDS011;20142;28.494;-16.312;2022-10-31T13:02:59;8.32;;;1.92;;
33840;SDS011;20142;28.494;-16.312;2022-10-31T13:08:15;6.32;;;1.70;;
33840;SDS011;20142;28.494;-16.312;2022-10-31T13:13:26;12.10;;;1.77;;
33840;SDS011;20142;28.494;-16.312;2022-10-31T13:23:47;10.77;;;1.83;;
33840;SDS011;20142;28.494;-16.312;2022-10-31T13:28:54;7.53;;;1.75;;
33840;SDS011;20142;28.494;-16.312;2022-10-31T13:44:48;7.13;;;1.88;;
33840;SDS011;20142;28.494;-16.312;2022-10-31T13:49:50;8.43;;;1.77;;
33840;SDS011;20142;28.494;-16.312;2022-10-31T13:54:53;8.60;;;1.70;;
33840;SDS011;20142;28.494;-16.312;2022-10-31T13:59:58;9.27;;;1.75;;
33840;SDS011;20142;28.494;-16.312;2022-10-31T14:05:06;8.45;;;1.88;;
33840;SDS011;20142;28.494;-16.312;2022-10-31T14:10:35;11.67;;;2.20;;
33840;SDS011;20142;28.494;-16.312;2022-10-31T14:15:56;8.43;;;1.67;;
33840;SDS011;20142;28.494;-16.312;2022-10-31T14:21:15;8.10;;;1.98;;
33840;SDS011;20142;28.494;-16.312;2022-10-31T14:31:34;9.93;;;1.70;;
33840;SDS011;20142;28.494;-16.312;2022-10-31T14:58:36;6.73;;;2.13;;
33840;SDS011;20142;28.494;-16.312;2022-10-31T15:03:42;8.45;;;2.20;;
33840;SDS011;20142;28.494;-16.312;2022-10-31T15:08:47;7.03;;;1.73;;
33840;SDS011;20142;28.494;-16.312;2022-10-31T15:13:53;6.45;;;1.95;;
33840;SDS011;20142;28.494;-16.312;2022-10-31T15:19:03;9.80;;;1.52;;
33840;SDS011;20142;28.494;-16.312;2022-10-31T15:24:11;7.10;;;1.25;;
33840;SDS011;20142;28.494;-16.312;2022-10-31T15:34:41;5.63;;;1.33;;
33840;SDS011;20142;28.494;-16.312;2022-10-31T15:39:44;7.00;;;1.73;;
33840;SDS011;20142;28.494;-16.312;2022-10-31T15:45:00;8.90;;;1.58;;
33840;SDS011;20142;28.494;-16.312;2022-10-31T15:50:24;5.22;;;1.50;;
33840;SDS011;20142;28.494;-16.312;2022-10-31T15:55:29;7.85;;;1.30;;
33840;SDS011;20142;28.494;-16.312;2022-10-31T16:00:37;7.83;;;2.30;;
33840;SDS011;20142;28.494;-16.312;2022-10-31T16:05:43;5.68;;;1.48;;
33840;SDS011;20142;28.494;-16.312;2022-10-31T16:10:51;6.32;;;1.60;;
33840;SDS011;20142;28.494;-16.312;2022-10-31T16:15:55;13.23;;;1.70;;
33840;SDS011;20142;28.494;-16.312;2022-10-31T16:21:02;6.20;;;1.35;;
33840;SDS011;20142;28.494;-16.312;2022-10-31T16:26:05;7.35;;;1.33;;
33840;SDS011;20142;28.494;-16.312;2022-10-31T16:31:12;7.57;;;1.63;;
33840;SDS011;20142;28.494;-16.312;2022-10-31T16:41:29;6.40;;;1.77;;
33840;SDS011;20142;28.494;-16.312;2022-10-31T16:46:31;7.40;;;1.63;;
33840;SDS011;20142;28.494;-16.312;2022-10-31T16:51:33;7.65;;;1.42;;
33840;SDS011;20142;28.494;-16.312;2022-10-31T16:56:34;7.72;;;1.55;;
33840;SDS011;20142;28.494;-16.312;2022-10-31T17:06:27;8.25;;;1.42;;
33840;SDS011;20142;28.494;-16.312;2022-10-31T17:11:29;6.82;;;1.55;;
33840;SDS011;20142;28.494;-16.312;2022-10-31T17:16:31;8.73;;;1.67;;
33840;SDS011;20142;28.494;-16.312;2022-10-31T17:21:32;10.20;;;1.60;;
33840;SDS011;20142;28.494;-16.312;2022-10-31T17:26:34;6.00;;;1.40;;
33840;SDS011;20142;28.494;-16.312;2022-10-31T17:31:35;7.47;;;1.10;;
33840;SDS011;20142;28.494;-16.312;2022-10-31T17:36:38;9.93;;;2.80;;
33840;SDS011;20142;28.494;-16.312;2022-10-31T17:41:40;5.53;;;1.58;;
33840;SDS011;20142;28.494;-16.312;2022-10-31T17:46:42;14.85;;;1.95;;
33840;SDS011;20142;28.494;-16.312;2022-10-31T17:51:44;7.57;;;1.90;;
33840;SDS011;20142;28.494;-16.312;2022-10-31T17:56:45;11.23;;;2.40;;
33840;SDS011;20142;28.494;-16.312;2022-10-31T18:01:47;9.20;;;2.10;;
33840;SDS011;20142;28.494;-16.312;2022-10-31T18:06:48;8.13;;;2.10;;
33840;SDS011;20142;28.494;-16.312;2022-10-31T18:11:50;11.95;;;2.42;;
33840;SDS011;20142;28.494;-16.312;2022-10-31T18:16:52;11.23;;;2.08;;
33840;SDS011;20142;28.494;-16.312;2022-10-31T18:21:53;10.70;;;2.08;;
33840;SDS011;20142;28.494;-16.312;2022-10-31T18:26:55;15.40;;;2.00;;
33840;SDS011;20142;28.494;-16.312;2022-10-31T18:31:57;7.88;;;2.00;;
33840;SDS011;20142;28.494;-16.312;2022-10-31T18:36:58;11.38;;;1.92;;
33840;SDS011;20142;28.494;-16.312;2022-10-31T18:42:00;16.25;;;2.45;;
33840;SDS011;20142;28.494;-16.312;2022-10-31T18:47:01;10.48;;;2.25;;
33840;SDS011;20142;28.494;-16.312;2022-10-31T18:52:03;9.40;;;1.90;;
33840;SDS011;20142;28.494;-16.312;2022-10-31T18:57:05;12.02;;;2.55;;
33840;SDS011;20142;28.494;-16.312;2022-10-31T19:02:08;14.98;;;2.58;;
33840;SDS011;20142;28.494;-16.312;2022-10-31T19:07:14;15.38;;;3.85;;
33840;SDS011;20142;28.494;-16.312;2022-10-31T19:12:16;13.32;;;2.58;;
33840;SDS011;20142;28.494;-16.312;2022-10-31T19:17:17;17.98;;;3.08;;
33840;SDS011;20142;28.494;-16.312;2022-10-31T19:22:19;16.52;;;3.08;;
33840;SDS011;20142;28.494;-16.312;2022-10-31T19:27:20;17.27;;;2.90;;
33840;SDS011;20142;28.494;-16.312;2022-10-31T19:32:22;19.65;;;3.17;;
33840;SDS011;20142;28.494;-16.312;2022-10-31T19:37:24;15.93;;;4.28;;
33840;SDS011;20142;28.494;-16.312;2022-10-31T19:42:25;14.23;;;2.80;;
33840;SDS011;20142;28.494;-16.312;2022-10-31T19:47:28;10.48;;;3.17;;
33840;SDS011;20142;28.494;-16.312;2022-10-31T19:52:33;10.30;;;2.80;;
33840;SDS011;20142;28.494;-16.312;2022-10-31T19:57:35;14.65;;;3.47;;
33840;SDS011;20142;28.494;-16.312;2022-10-31T20:02:37;13.60;;;3.50;;
33840;SDS011;20142;28.494;-16.312;2022-10-31T20:07:38;17.40;;;3.40;;
33840;SDS011;20142;28.494;-16.312;2022-10-31T20:12:40;11.30;;;3.38;;
33840;SDS011;20142;28.494;-16.312;2022-10-31T20:17:42;14.02;;;5.80;;
33840;SDS011;20142;28.494;-16.312;2022-10-31T20:22:43;14.52;;;3.25;;
33840;SDS011;20142;28.494;-16.312;2022-10-31T20:27:46;14.75;;;3.03;;
33840;SDS011;20142;28.494;-16.312;2022-10-31T20:32:48;10.68;;;2.90;;
33840;SDS011;20142;28.494;-16.312;2022-10-31T20:37:50;11.35;;;4.00;;
33840;SDS011;20142;28.494;-16.312;2022-10-31T20:42:51;17.25;;;4.30;;
33840;SDS011;20142;28.494;-16.312;2022-10-31T20:47:53;15.20;;;4.78;;
33840;SDS011;20142;28.494;-16.312;2022-10-31T20:52:55;18.33;;;5.10;;
33840;SDS011;20142;28.494;-16.312;2022-10-31T20:57:57;19.70;;;5.78;;
33840;SDS011;20142;28.494;-16.312;2022-10-31T21:02:58;13.98;;;3.92;;
33840;SDS011;20142;28.494;-16.312;2022-10-31T21:08:00;13.73;;;3.55;;
33840;SDS011;20142;28.494;-16.312;2022-10-31T21:13:01;12.82;;;3.00;;
33840;SDS011;20142;28.494;-16.312;2022-10-31T21:18:03;12.88;;;3.60;;
33840;SDS011;20142;28.494;-16.312;2022-10-31T21:23:05;16.13;;;3.30;;
33840;SDS011;20142;28.494;-16.312;2022-10-31T21:28:07;18.05;;;2.75;;
33840;SDS011;20142;28.494;-16.312;2022-10-31T21:33:10;11.30;;;3.22;;
33840;SDS011;20142;28.494;-16.312;2022-10-31T21:38:12;15.43;;;3.35;;
33840;SDS011;20142;28.494;-16.312;2022-10-31T21:43:13;16.20;;;3.95;;
33840;SDS011;20142;28.494;-16.312;2022-10-31T21:48:15;16.35;;;3.72;;
33840;SDS011;20142;28.494;-16.312;2022-10-31T21:53:17;14.82;;;3.42;;
33840;SDS011;20142;28.494;-16.312;2022-10-31T21:58:37;18.75;;;3.90;;
33840;SDS011;20142;28.494;-16.312;2022-10-31T22:03:39;19.80;;;4.43;;
33840;SDS011;20142;28.494;-16.312;2022-10-31T22:08:41;22.67;;;4.57;;
33840;SDS011;20142;28.494;-16.312;2022-10-31T22:13:44;22.05;;;4.15;;
33840;SDS011;20142;28.494;-16.312;2022-10-31T22:18:50;14.77;;;3.80;;
33840;SDS011;20142;28.494;-16.312;2022-10-31T22:23:55;20.05;;;4.43;;
33840;SDS011;20142;28.494;-16.312;2022-10-31T22:29:00;22.75;;;3.95;;
33840;SDS011;20142;28.494;-16.312;2022-10-31T22:34:04;30.15;;;4.43;;
33840;SDS011;20142;28.494;-16.312;2022-10-31T22:39:06;14.35;;;3.40;;
33840;SDS011;20142;28.494;-16.312;2022-10-31T22:44:10;20.13;;;4.32;;
33840;SDS011;20142;28.494;-16.312;2022-10-31T22:49:12;23.20;;;4.53;;
33840;SDS011;20142;28.494;-16.312;2022-10-31T22:54:15;25.48;;;5.05;;
33840;SDS011;20142;28.494;-16.312;2022-10-31T22:59:18;23.23;;;4.63;;
33840;SDS011;20142;28.494;-16.312;2022-10-31T23:04:19;22.25;;;4.13;;
33840;SDS011;20142;28.494;-16.312;2022-10-31T23:09:21;19.48;;;4.13;;
33840;SDS011;20142;28.494;-16.312;2022-10-31T23:14:23;22.02;;;4.90;;
33840;SDS011;20142;28.494;-16.312;2022-10-31T23:19:25;22.75;;;4.60;;
33840;SDS011;20142;28.494;-16.312;2022-10-31T23:34:54;26.65;;;5.10;;
33840;SDS011;20142;28.494;-16.312;2022-10-31T23:40:07;23.17;;;4.90;;
33840;SDS011;20142;28.494;-16.312;2022-10-31T23:45:09;36.10;;;5.85;;
33840;SDS011;20142;28.494;-16.312;2022-10-31T23:50:10;28.88;;;5.72;;
33840;SDS011;20142;28.494;-16.312;2022-10-31T23:55:12;31.77;;;7.10;;
